Time;durP1;ratioP1;P1;durP2;ratioP2;P2;SDS_P1;SDS_P2;PMS_P1;PMS_P2;Temp;Humidity;BMP_temperature;BMP_pressure;BME280_temperature;BME280_humidity;BME280_pressure;Samples;Min_cycle;Max_cycle;Signal;HPM_P1;HPM_P2
2022/10/18 00:00:57;;;;;;;46.38;27.42;;;;;;;;;;5140151;27;20558;-71
2022/10/18 00:03:23;;;;;;;44.45;27.02;;;;;;;;;;5137150;27;20050;-71
2022/10/18 00:05:50;;;;;;;34.83;25.70;;;;;;;;;;5135008;27;20489;-71
2022/10/18 00:08:16;;;;;;;33.28;22.75;;;;;;;;;;5140674;27;20046;-71
2022/10/18 00:10:43;;;;;;;39.22;25.52;;;;;;;;;;5136539;27;20058;-71
2022/10/18 00:13:09;;;;;;;42.67;25.38;;;;;;;;;;5132916;27;20043;-71
2022/10/18 00:15:35;;;;;;;36.03;25.38;;;;;;;;;;5149012;27;20043;-71
2022/10/18 00:18:01;;;;;;;224.23;29.15;;;;;;;;;;5133071;27;20051;-71
2022/10/18 00:20:27;;;;;;;47.33;23.88;;;;;;;;;;5122838;27;20057;-71
2022/10/18 00:22:53;;;;;;;126.78;23.60;;;;;;;;;;5115301;27;20051;-71
2022/10/18 00:25:20;;;;;;;125.20;23.38;;;;;;;;;;5097420;27;20043;-71
2022/10/18 00:27:46;;;;;;;328.42;24.98;;;;;;;;;;5147936;27;20542;-71
2022/10/18 00:30:12;;;;;;;409.88;24.08;;;;;;;;;;5134586;27;20039;-70
2022/10/18 00:32:38;;;;;;;181.18;22.00;;;;;;;;;;5129674;27;20046;-70
2022/10/18 00:35:05;;;;;;;190.77;19.60;;;;;;;;;;5137793;27;20087;-70
2022/10/18 00:37:31;;;;;;;82.35;17.60;;;;;;;;;;5138221;27;20058;-71
2022/10/18 00:39:57;;;;;;;280.67;23.50;;;;;;;;;;5130278;27;20393;-70
2022/10/18 00:42:30;;;;;;;152.98;19.00;;;;;;;;;;5152339;27;20042;-70
2022/10/18 00:45:00;;;;;;;363.52;24.17;;;;;;;;;;5147756;27;20081;-71
2022/10/18 00:47:26;;;;;;;290.17;22.13;;;;;;;;;;5151221;27;20055;-71
2022/10/18 00:49:53;;;;;;;456.05;25.42;;;;;;;;;;5139958;27;20398;-71
2022/10/18 00:52:25;;;;;;;370.70;26.50;;;;;;;;;;5133446;27;20079;-71
2022/10/18 00:54:51;;;;;;;271.15;22.13;;;;;;;;;;5133713;27;20116;-70
2022/10/18 00:57:18;;;;;;;146.10;20.77;;;;;;;;;;5131754;27;20035;-70
2022/10/18 00:59:44;;;;;;;351.17;27.65;;;;;;;;;;5139600;27;20080;-70
2022/10/18 01:02:13;;;;;;;98.78;21.50;;;;;;;;;;5145245;27;20112;-71
2022/10/18 01:04:39;;;;;;;135.25;19.90;;;;;;;;;;5153951;27;20512;-71
2022/10/18 01:07:30;;;;;;;117.82;20.75;;;;;;;;;;5142078;27;20050;-71
2022/10/18 01:10:00;;;;;;;72.80;20.77;;;;;;;;;;5146412;27;20039;-70
2022/10/18 01:12:32;;;;;;;68.28;21.13;;;;;;;;;;5132618;27;20044;-71
2022/10/18 01:15:30;;;;;;;117.55;22.17;;;;;;;;;;5141086;27;20057;-70
2022/10/18 01:18:08;;;;;;;201.73;27.85;;;;;;;;;;5081928;27;20112;-71
2022/10/18 01:20:34;;;;;;;147.40;24.35;;;;;;;;;;5120135;27;20069;-70
2022/10/18 01:23:05;;;;;;;62.35;20.95;;;;;;;;;;5124009;27;20067;-70
2022/10/18 01:25:33;;;;;;;111.07;22.67;;;;;;;;;;5121894;27;20119;-71
2022/10/18 01:28:18;;;;;;;88.30;21.63;;;;;;;;;;5118075;27;20052;-70
2022/10/18 01:30:52;;;;;;;156.05;26.15;;;;;;;;;;5114689;27;20115;-70
2022/10/18 01:33:19;;;;;;;151.90;27.45;;;;;;;;;;5116329;27;20090;-71
2022/10/18 01:35:54;;;;;;;98.32;23.00;;;;;;;;;;5115875;27;20043;-70
2022/10/18 01:38:23;;;;;;;127.38;25.95;;;;;;;;;;5096772;28;20039;-70
2022/10/18 01:40:50;;;;;;;216.13;30.63;;;;;;;;;;5125244;27;20404;-70
2022/10/18 01:43:16;;;;;;;205.63;29.35;;;;;;;;;;5116231;28;20050;-70
2022/10/18 01:45:42;;;;;;;96.15;22.83;;;;;;;;;;5116415;27;20047;-70
2022/10/18 01:48:10;;;;;;;316.00;35.17;;;;;;;;;;5120020;27;20043;-69
2022/10/18 01:50:36;;;;;;;64.28;24.27;;;;;;;;;;5133324;27;20050;-70
2022/10/18 01:53:02;;;;;;;131.05;27.52;;;;;;;;;;5131735;27;20047;-70
2022/10/18 01:55:37;;;;;;;51.65;20.92;;;;;;;;;;5121782;27;20047;-70
2022/10/18 01:58:06;;;;;;;205.25;30.67;;;;;;;;;;5129698;27;20047;-70
2022/10/18 02:00:41;;;;;;;114.45;24.90;;;;;;;;;;5115334;27;20378;-70
2022/10/18 02:03:23;;;;;;;283.92;31.63;;;;;;;;;;5133123;27;20119;-70
2022/10/18 02:05:59;;;;;;;126.22;25.02;;;;;;;;;;5116678;27;20031;-70
2022/10/18 02:08:28;;;;;;;82.88;23.52;;;;;;;;;;5114830;27;20118;-70
2022/10/18 02:11:06;;;;;;;45.78;21.80;;;;;;;;;;5125827;27;20082;-70
2022/10/18 02:13:38;;;;;;;41.30;22.08;;;;;;;;;;5122599;27;20065;-70
2022/10/18 02:16:05;;;;;;;211.52;28.70;;;;;;;;;;5125154;27;20045;-70
2022/10/18 02:18:53;;;;;;;183.80;28.70;;;;;;;;;;5109500;28;20051;-70
2022/10/18 02:21:19;;;;;;;176.02;27.88;;;;;;;;;;5126833;27;20047;-70
2022/10/18 02:23:45;;;;;;;377.40;37.42;;;;;;;;;;5120754;27;20049;-70
2022/10/18 02:26:11;;;;;;;115.45;27.45;;;;;;;;;;5124299;27;20047;-69
2022/10/18 02:28:38;;;;;;;91.75;26.25;;;;;;;;;;5131166;27;20035;-70
2022/10/18 02:31:16;;;;;;;111.80;26.77;;;;;;;;;;5132126;27;20050;-69
2022/10/18 02:33:45;;;;;;;167.50;27.77;;;;;;;;;;5127775;27;20042;-70
2022/10/18 02:36:17;;;;;;;179.75;30.25;;;;;;;;;;5117041;27;20040;-70
2022/10/18 02:38:45;;;;;;;143.23;27.65;;;;;;;;;;5129800;27;20055;-70
2022/10/18 02:41:11;;;;;;;99.65;27.48;;;;;;;;;;5118407;27;20039;-69
2022/10/18 02:43:37;;;;;;;94.63;25.63;;;;;;;;;;5127230;27;20053;-70
2022/10/18 02:46:03;;;;;;;91.43;23.85;;;;;;;;;;5121824;27;20035;-70
2022/10/18 02:48:29;;;;;;;226.93;30.55;;;;;;;;;;5121668;27;20451;-70
2022/10/18 02:50:55;;;;;;;150.40;22.45;;;;;;;;;;5129468;27;20500;-70
2022/10/18 02:53:21;;;;;;;107.43;25.40;;;;;;;;;;5120956;27;20071;-69
2022/10/18 02:55:47;;;;;;;261.25;31.60;;;;;;;;;;5123680;27;20088;-70
2022/10/18 02:58:13;;;;;;;144.45;27.42;;;;;;;;;;5128686;27;20046;-70
2022/10/18 03:00:39;;;;;;;79.88;24.52;;;;;;;;;;5132636;27;20035;-70
2022/10/18 03:03:05;;;;;;;415.63;40.55;;;;;;;;;;5132669;27;20043;-70
2022/10/18 03:05:31;;;;;;;121.05;23.15;;;;;;;;;;5119969;27;20031;-70
2022/10/18 03:07:57;;;;;;;115.90;22.55;;;;;;;;;;5132471;27;20442;-70
2022/10/18 03:10:23;;;;;;;410.50;39.95;;;;;;;;;;5116988;27;20052;-70
2022/10/18 03:12:49;;;;;;;114.70;22.98;;;;;;;;;;5113637;28;20427;-70
2022/10/18 03:15:15;;;;;;;445.95;39.90;;;;;;;;;;5126765;27;20044;-69
2022/10/18 03:17:41;;;;;;;222.55;28.70;;;;;;;;;;5125173;27;20055;-70
2022/10/18 03:20:07;;;;;;;219.25;29.33;;;;;;;;;;5138930;27;20100;-70
2022/10/18 03:22:33;;;;;;;182.10;25.38;;;;;;;;;;5119509;27;20073;-70
2022/10/18 03:24:59;;;;;;;188.38;22.23;;;;;;;;;;5152321;27;20085;-70
2022/10/18 03:27:25;;;;;;;416.80;36.80;;;;;;;;;;5124160;27;20042;-70
2022/10/18 03:29:51;;;;;;;136.02;23.45;;;;;;;;;;5137085;27;20054;-70
2022/10/18 03:32:18;;;;;;;299.35;31.15;;;;;;;;;;5144500;27;20039;-70
2022/10/18 03:34:44;;;;;;;202.45;22.58;;;;;;;;;;5147078;27;20093;-69
2022/10/18 03:37:10;;;;;;;140.77;24.05;;;;;;;;;;5121862;27;20449;-70
2022/10/18 03:39:36;;;;;;;385.65;34.15;;;;;;;;;;5133696;27;20042;-70
2022/10/18 03:42:02;;;;;;;312.90;28.88;;;;;;;;;;5142513;27;20522;-70
2022/10/18 03:44:28;;;;;;;196.18;24.67;;;;;;;;;;5117749;27;20078;-71
2022/10/18 03:46:54;;;;;;;314.85;33.03;;;;;;;;;;5134649;27;20539;-70
2022/10/18 03:49:20;;;;;;;326.67;33.25;;;;;;;;;;5134807;27;20047;-70
2022/10/18 03:51:46;;;;;;;325.85;33.03;;;;;;;;;;5145750;27;20520;-70
2022/10/18 03:54:12;;;;;;;277.52;31.88;;;;;;;;;;5153702;27;20042;-70
2022/10/18 03:56:38;;;;;;;400.77;35.45;;;;;;;;;;5137068;27;20493;-71
2022/10/18 03:59:04;;;;;;;189.70;24.00;;;;;;;;;;5133601;27;20039;-72
2022/10/18 04:01:30;;;;;;;278.15;29.88;;;;;;;;;;5141606;27;20087;-71
2022/10/18 04:03:56;;;;;;;248.55;26.45;;;;;;;;;;5153219;27;20039;-71
2022/10/18 04:06:22;;;;;;;472.10;35.00;;;;;;;;;;5140819;27;20043;-70
2022/10/18 04:08:48;;;;;;;247.07;29.80;;;;;;;;;;5147615;27;20091;-70
2022/10/18 04:11:14;;;;;;;278.35;26.15;;;;;;;;;;5138042;27;20123;-70
2022/10/18 04:13:40;;;;;;;454.65;35.50;;;;;;;;;;5133350;27;20050;-70
2022/10/18 04:16:06;;;;;;;306.33;30.30;;;;;;;;;;5149147;27;20031;-69
2022/10/18 04:18:32;;;;;;;570.10;43.70;;;;;;;;;;5149228;27;20507;-70
2022/10/18 04:20:58;;;;;;;468.00;38.70;;;;;;;;;;5153105;27;20407;-71
2022/10/18 04:23:24;;;;;;;384.50;33.97;;;;;;;;;;5153910;27;20123;-71
2022/10/18 04:25:50;;;;;;;219.05;27.48;;;;;;;;;;5133376;27;20087;-71
2022/10/18 04:28:17;;;;;;;568.38;45.03;;;;;;;;;;5147935;27;20050;-70
2022/10/18 04:30:43;;;;;;;403.60;36.97;;;;;;;;;;5121865;27;20035;-70
2022/10/18 04:33:09;;;;;;;425.25;36.30;;;;;;;;;;5132300;27;20074;-71
2022/10/18 04:35:35;;;;;;;248.90;26.88;;;;;;;;;;5133454;27;20042;-71
2022/10/18 04:38:01;;;;;;;158.95;23.48;;;;;;;;;;5134111;27;20039;-71
2022/10/18 04:40:27;;;;;;;381.27;33.85;;;;;;;;;;5132656;27;20047;-70
2022/10/18 04:42:53;;;;;;;448.95;38.83;;;;;;;;;;5133351;27;20039;-71
2022/10/18 04:45:19;;;;;;;356.35;33.63;;;;;;;;;;5141947;27;20039;-71
2022/10/18 04:47:45;;;;;;;179.73;25.67;;;;;;;;;;5143914;27;20636;-70
2022/10/18 04:50:11;;;;;;;446.33;39.35;;;;;;;;;;5148420;27;20049;-70
2022/10/18 04:52:37;;;;;;;96.07;16.88;;;;;;;;;;5153618;27;20484;-70
2022/10/18 04:55:03;;;;;;;391.23;37.83;;;;;;;;;;5140121;27;20039;-71
2022/10/18 04:57:29;;;;;;;209.85;26.10;;;;;;;;;;5131796;27;20118;-70
2022/10/18 04:59:55;;;;;;;281.25;32.00;;;;;;;;;;5115013;28;20150;-71
2022/10/18 05:02:21;;;;;;;425.77;41.47;;;;;;;;;;5151930;27;20061;-70
2022/10/18 05:04:47;;;;;;;166.55;26.38;;;;;;;;;;5145768;27;20084;-70
2022/10/18 05:07:13;;;;;;;115.28;24.98;;;;;;;;;;5151399;27;20530;-71
2022/10/18 05:09:39;;;;;;;101.63;21.50;;;;;;;;;;5154542;27;20047;-71
2022/10/18 05:12:05;;;;;;;316.00;34.67;;;;;;;;;;5137087;27;20043;-71
2022/10/18 05:14:31;;;;;;;124.05;23.80;;;;;;;;;;5139591;27;20480;-70
2022/10/18 05:16:57;;;;;;;178.07;27.98;;;;;;;;;;5136248;27;20141;-70
2022/10/18 05:19:23;;;;;;;253.07;32.00;;;;;;;;;;5143762;27;20047;-71
2022/10/18 05:21:49;;;;;;;227.90;27.77;;;;;;;;;;5145530;27;20087;-70
2022/10/18 05:24:15;;;;;;;235.00;31.10;;;;;;;;;;5132868;27;20085;-70
2022/10/18 05:26:41;;;;;;;216.55;29.50;;;;;;;;;;5137872;27;20047;-70
2022/10/18 05:29:07;;;;;;;142.23;23.98;;;;;;;;;;5142477;27;20043;-70
2022/10/18 05:31:33;;;;;;;260.13;32.90;;;;;;;;;;5132987;27;20481;-71
2022/10/18 05:34:00;;;;;;;97.40;22.67;;;;;;;;;;5143706;27;20091;-70
2022/10/18 05:36:27;;;;;;;103.43;20.15;;;;;;;;;;5135068;27;20040;-70
2022/10/18 05:38:54;;;;;;;116.60;20.98;;;;;;;;;;5138816;27;20043;-71
2022/10/18 05:41:20;;;;;;;127.97;23.23;;;;;;;;;;5137723;27;20511;-71
2022/10/18 05:43:46;;;;;;;238.70;25.65;;;;;;;;;;5135177;27;20046;-70
2022/10/18 05:46:12;;;;;;;323.65;30.13;;;;;;;;;;5156984;27;20048;-71
2022/10/18 05:48:38;;;;;;;141.93;21.75;;;;;;;;;;5138027;27;20046;-71
2022/10/18 05:51:04;;;;;;;148.88;22.92;;;;;;;;;;5143953;27;20059;-70
2022/10/18 05:53:30;;;;;;;85.30;20.85;;;;;;;;;;5153615;27;20042;-70
2022/10/18 05:56:00;;;;;;;115.40;22.27;;;;;;;;;;5143603;27;20035;-71
2022/10/18 05:58:26;;;;;;;230.25;22.67;;;;;;;;;;5135697;27;20040;-70
2022/10/18 06:00:52;;;;;;;127.60;16.33;;;;;;;;;;5151337;27;20118;-71
2022/10/18 06:03:18;;;;;;;351.20;27.75;;;;;;;;;;5149192;27;20044;-71
2022/10/18 06:05:44;;;;;;;302.08;26.13;;;;;;;;;;5145288;27;20043;-71
2022/10/18 06:08:10;;;;;;;343.60;27.45;;;;;;;;;;5143688;27;20054;-71
2022/10/18 06:10:38;;;;;;;294.27;28.10;;;;;;;;;;5146418;27;20545;-71
2022/10/18 06:13:04;;;;;;;310.05;27.98;;;;;;;;;;5137906;27;20484;-71
2022/10/18 06:15:31;;;;;;;216.05;23.80;;;;;;;;;;5138742;27;20400;-71
2022/10/18 06:17:57;;;;;;;233.93;25.10;;;;;;;;;;5116705;27;20477;-71
2022/10/18 06:20:24;;;;;;;214.93;24.20;;;;;;;;;;5143516;27;20061;-71
2022/10/18 06:22:52;;;;;;;176.93;24.00;;;;;;;;;;5116863;27;20039;-71
2022/10/18 06:25:18;;;;;;;260.05;29.17;;;;;;;;;;5138502;27;20046;-71
2022/10/18 06:27:44;;;;;;;141.20;20.05;;;;;;;;;;5144007;27;20040;-71
2022/10/18 06:30:10;;;;;;;162.27;19.55;;;;;;;;;;5145288;27;21268;-71
2022/10/18 06:32:36;;;;;;;51.05;14.93;;;;;;;;;;5149804;27;20030;-71
2022/10/18 06:35:02;;;;;;;118.65;18.08;;;;;;;;;;5147756;27;20042;-71
2022/10/18 06:37:31;;;;;;;134.48;21.70;;;;;;;;;;5142734;27;20188;-71
2022/10/18 06:39:57;;;;;;;163.02;21.95;;;;;;;;;;5138243;27;20035;-71
2022/10/18 06:42:23;;;;;;;155.65;21.45;;;;;;;;;;5135161;27;20046;-71
2022/10/18 06:44:49;;;;;;;151.23;18.85;;;;;;;;;;5144267;27;20031;-71
2022/10/18 06:47:15;;;;;;;106.80;18.10;;;;;;;;;;5135684;27;20400;-71
2022/10/18 06:49:41;;;;;;;194.20;21.25;;;;;;;;;;5138223;27;20051;-71
2022/10/18 06:52:07;;;;;;;221.02;24.88;;;;;;;;;;5146810;27;20496;-71
2022/10/18 06:54:33;;;;;;;197.10;20.75;;;;;;;;;;5145055;27;20122;-71
2022/10/18 06:57:01;;;;;;;156.65;20.60;;;;;;;;;;5137783;27;20055;-71
2022/10/18 06:59:27;;;;;;;264.88;24.45;;;;;;;;;;5121504;27;20404;-71
2022/10/18 07:01:53;;;;;;;180.65;19.13;;;;;;;;;;5149391;27;20057;-71
2022/10/18 07:04:19;;;;;;;184.63;19.38;;;;;;;;;;5152279;27;20619;-71
2022/10/18 07:06:45;;;;;;;124.53;18.95;;;;;;;;;;5143324;27;20074;-71
2022/10/18 07:09:12;;;;;;;163.35;17.60;;;;;;;;;;5144592;27;20496;-71
2022/10/18 07:11:38;;;;;;;239.15;20.63;;;;;;;;;;5146068;27;20119;-70
2022/10/18 07:14:04;;;;;;;192.15;17.92;;;;;;;;;;5147967;27;20050;-71
2022/10/18 07:16:31;;;;;;;260.70;21.02;;;;;;;;;;5141883;27;20050;-71
2022/10/18 07:18:57;;;;;;;134.73;19.63;;;;;;;;;;5138193;27;20058;-71
2022/10/18 07:21:23;;;;;;;149.23;18.45;;;;;;;;;;5119290;27;20043;-71
2022/10/18 07:23:50;;;;;;;175.13;18.98;;;;;;;;;;5134858;27;20114;-71
2022/10/18 07:26:17;;;;;;;103.97;15.63;;;;;;;;;;5152922;27;20070;-71
2022/10/18 07:28:44;;;;;;;138.73;14.98;;;;;;;;;;5145530;27;20049;-71
2022/10/18 07:31:11;;;;;;;180.68;16.10;;;;;;;;;;5115618;27;20039;-71
2022/10/18 07:33:37;;;;;;;73.78;12.45;;;;;;;;;;5098525;27;20412;-70
2022/10/18 07:36:04;;;;;;;131.52;13.82;;;;;;;;;;5147937;27;20115;-70
2022/10/18 07:38:30;;;;;;;176.63;16.85;;;;;;;;;;5137069;27;20039;-70
2022/10/18 07:40:57;;;;;;;68.20;12.48;;;;;;;;;;5139040;27;20127;-70
2022/10/18 07:43:23;;;;;;;62.10;11.80;;;;;;;;;;5153122;27;20061;-71
2022/10/18 07:45:53;;;;;;;115.22;12.50;;;;;;;;;;5126532;27;20039;-70
2022/10/18 07:48:19;;;;;;;102.75;13.63;;;;;;;;;;5122945;27;20046;-71
2022/10/18 07:50:45;;;;;;;79.13;11.43;;;;;;;;;;5130037;27;20374;-71
2022/10/18 07:53:11;;;;;;;47.70;10.73;;;;;;;;;;5134947;27;20042;-70
2022/10/18 07:55:37;;;;;;;29.42;9.48;;;;;;;;;;5141403;27;20061;-70
2022/10/18 07:58:03;;;;;;;27.65;11.02;;;;;;;;;;5147512;27;20122;-71
2022/10/18 08:00:29;;;;;;;18.30;9.63;;;;;;;;;;5133428;27;20137;-71
2022/10/18 08:02:56;;;;;;;16.25;10.35;;;;;;;;;;5149585;27;20034;-70
2022/10/18 08:05:22;;;;;;;11.68;9.98;;;;;;;;;;5142453;27;20058;-70
2022/10/18 08:07:48;;;;;;;13.10;10.63;;;;;;;;;;5134033;27;20035;-70
2022/10/18 08:10:14;;;;;;;14.77;10.63;;;;;;;;;;5135825;27;20043;-70
2022/10/18 08:12:40;;;;;;;12.82;10.52;;;;;;;;;;5117079;27;20043;-71
2022/10/18 08:15:07;;;;;;;15.13;10.40;;;;;;;;;;5145714;27;20076;-71
2022/10/18 08:17:33;;;;;;;17.08;11.95;;;;;;;;;;5143026;27;20050;-70
2022/10/18 08:19:59;;;;;;;15.20;10.55;;;;;;;;;;5143269;27;20408;-71
2022/10/18 08:22:25;;;;;;;14.68;11.00;;;;;;;;;;5133256;27;20087;-71
2022/10/18 08:24:51;;;;;;;13.55;8.98;;;;;;;;;;5140255;27;20403;-71
2022/10/18 08:27:17;;;;;;;16.83;10.00;;;;;;;;;;5144070;27;20042;-71
2022/10/18 08:29:43;;;;;;;17.15;10.75;;;;;;;;;;5139229;27;20043;-71
2022/10/18 08:32:09;;;;;;;14.52;9.55;;;;;;;;;;5134313;27;20042;-71
2022/10/18 08:34:35;;;;;;;14.00;7.93;;;;;;;;;;5132947;27;20047;-71
2022/10/18 08:37:02;;;;;;;12.80;8.68;;;;;;;;;;5137478;27;20045;-71
2022/10/18 08:39:28;;;;;;;13.00;9.02;;;;;;;;;;5140075;27;20047;-71
2022/10/18 08:42:12;;;;;;;28.48;25.60;;;;;;;;;;5147301;27;20063;-71
2022/10/18 08:44:42;;;;;;;12.25;9.80;;;;;;;;;;5132764;27;20503;-71
2022/10/18 08:47:13;;;;;;;13.95;8.07;;;;;;;;;;5137903;27;20035;-71
2022/10/18 08:49:39;;;;;;;;;;;;;;;;;;5141095;27;20050;-71
2022/10/18 08:52:13;;;;;;;13.73;9.13;;;;;;;;;;5133990;27;19919;-72
2022/10/18 08:54:47;;;;;;;12.70;9.07;;;;;;;;;;5132490;27;20054;-71
2022/10/18 08:57:16;;;;;;;11.65;8.50;;;;;;;;;;5143878;27;20046;-71
2022/10/18 08:59:43;;;;;;;12.45;8.23;;;;;;;;;;5121935;28;20493;-71
2022/10/18 09:02:27;;;;;;;15.13;7.93;;;;;;;;;;5135041;27;20079;-72
2022/10/18 09:04:59;;;;;;;13.77;7.10;;;;;;;;;;5132254;27;20039;-72
2022/10/18 09:07:40;;;;;;;11.95;6.47;;;;;;;;;;5147094;27;20397;-71
2022/10/18 09:10:21;;;;;;;11.10;7.18;;;;;;;;;;5114487;28;20165;-71
2022/10/18 09:12:50;;;;;;;12.47;6.90;;;;;;;;;;5138224;27;20049;-71
2022/10/18 09:15:32;;;;;;;12.13;6.45;;;;;;;;;;5148278;27;20296;-71
2022/10/18 09:18:04;;;;;;;16.15;7.00;;;;;;;;;;5145717;27;20062;-71
2022/10/18 09:20:47;;;;;;;14.52;6.78;;;;;;;;;;5145992;27;20464;-70
2022/10/18 09:23:19;;;;;;;12.38;6.50;;;;;;;;;;5140586;27;20054;-71
2022/10/18 09:25:45;;;;;;;13.02;7.40;;;;;;;;;;5138303;27;20051;-71
2022/10/18 09:28:14;;;;;;;13.10;7.30;;;;;;;;;;5136046;27;20046;-70
2022/10/18 09:30:40;;;;;;;11.85;6.28;;;;;;;;;;5136271;27;20050;-70
2022/10/18 09:33:25;;;;;;;13.38;7.22;;;;;;;;;;5136594;27;20047;-71
2022/10/18 09:35:56;;;;;;;15.27;7.60;;;;;;;;;;5124231;27;20057;-71
2022/10/18 09:38:22;;;;;;;;;;;;;;;;;;5138176;27;20118;-71
2022/10/18 09:40:52;;;;;;;16.65;7.65;;;;;;;;;;5146086;27;20472;-70
2022/10/18 09:43:22;;;;;;;17.10;7.50;;;;;;;;;;5144212;27;20055;-70
2022/10/18 09:45:49;;;;;;;13.13;6.65;;;;;;;;;;5139104;27;20052;-71
2022/10/18 09:48:21;;;;;;;12.10;6.32;;;;;;;;;;5148693;27;20053;-71
2022/10/18 09:50:47;;;;;;;14.00;6.22;;;;;;;;;;5134482;27;20114;-70
2022/10/18 09:53:36;;;;;;;16.55;6.13;;;;;;;;;;5135454;27;20050;-70
2022/10/18 09:56:06;;;;;;;12.02;5.97;;;;;;;;;;5147458;27;20136;-70
2022/10/18 09:58:43;;;;;;;11.65;5.93;;;;;;;;;;5147909;27;20071;-70
2022/10/18 10:01:10;;;;;;;14.93;5.50;;;;;;;;;;5144556;27;20400;-70
2022/10/18 10:03:36;;;;;;;14.90;5.00;;;;;;;;;;5146959;27;20034;-71
2022/10/18 10:06:23;;;;;;;11.13;3.90;;;;;;;;;;5141650;27;20043;-71
2022/10/18 10:08:53;;;;;;;15.80;3.88;;;;;;;;;;5142255;27;20096;-71
2022/10/18 10:11:26;;;;;;;12.75;3.47;;;;;;;;;;5139500;27;20090;-71
2022/10/18 10:13:56;;;;;;;13.50;3.45;;;;;;;;;;5144326;27;20039;-71
2022/10/18 10:16:22;;;;;;;13.20;3.40;;;;;;;;;;5135697;27;20055;-71
2022/10/18 10:18:53;;;;;;;12.45;2.85;;;;;;;;;;5134000;27;20081;-71
2022/10/18 10:21:19;;;;;;;12.57;2.85;;;;;;;;;;5138933;27;20091;-71
2022/10/18 10:23:50;;;;;;;17.80;3.17;;;;;;;;;;5143242;27;20061;-71
2022/10/18 10:26:16;;;;;;;;;;;;;;;;;;5134709;27;20047;-71
2022/10/18 10:28:45;;;;;;;15.13;2.97;;;;;;;;;;5135361;27;20342;-71
2022/10/18 10:31:29;;;;;;;14.00;3.10;;;;;;;;;;5115338;27;20395;-71
2022/10/18 10:34:03;;;;;;;14.63;2.88;;;;;;;;;;5134864;27;20047;-70
2022/10/18 10:36:30;;;;;;;12.48;2.72;;;;;;;;;;5147560;27;20107;-70
2022/10/18 10:39:17;;;;;;;13.63;2.58;;;;;;;;;;5143242;27;20096;-70
2022/10/18 10:41:47;;;;;;;15.48;2.95;;;;;;;;;;5114965;27;20036;-70
2022/10/18 10:44:18;;;;;;;14.70;2.90;;;;;;;;;;5134806;27;20051;-70
2022/10/18 10:46:45;;;;;;;13.90;2.75;;;;;;;;;;5135158;27;20480;-70
2022/10/18 10:49:23;;;;;;;13.40;2.95;;;;;;;;;;5141406;27;20412;-70
2022/10/18 10:51:56;;;;;;;12.93;2.90;;;;;;;;;;5141025;27;20041;-72
2022/10/18 10:54:26;;;;;;;12.32;2.13;;;;;;;;;;5145329;27;20031;-70
2022/10/18 10:57:10;;;;;;;9.88;1.85;;;;;;;;;;5141553;27;20047;-71
2022/10/18 10:59:45;;;;;;;13.13;2.47;;;;;;;;;;5116378;27;20516;-70
2022/10/18 11:02:16;;;;;;;13.60;2.22;;;;;;;;;;5144771;27;20050;-71
2022/10/18 11:04:43;;;;;;;12.50;2.42;;;;;;;;;;5139683;27;20148;-71
2022/10/18 11:07:09;;;;;;;13.45;2.30;;;;;;;;;;5137874;27;20051;-72
2022/10/18 11:09:50;;;;;;;13.60;2.00;;;;;;;;;;5141729;27;20035;-72
2022/10/18 11:12:16;;;;;;;;;;;;;;;;;;5145048;27;20055;-71
2022/10/18 11:14:45;;;;;;;12.38;1.85;;;;;;;;;;5143170;27;19954;-72
2022/10/18 11:17:21;;;;;;;12.77;2.20;;;;;;;;;;5143367;27;20044;-71
2022/10/18 11:20:05;;;;;;;9.75;2.13;;;;;;;;;;5137059;27;20047;-71
2022/10/18 11:22:43;;;;;;;11.32;1.70;;;;;;;;;;5135290;27;20523;-72
2022/10/18 11:25:12;;;;;;;16.20;2.25;;;;;;;;;;5143138;27;20388;-72
2022/10/18 11:27:57;;;;;;;11.60;1.95;;;;;;;;;;5154559;27;20068;-71
2022/10/18 11:30:38;;;;;;;9.65;1.70;;;;;;;;;;5150936;27;20053;-72
2022/10/18 11:33:10;;;;;;;14.63;2.33;;;;;;;;;;5134758;27;20083;-72
2022/10/18 11:35:45;;;;;;;14.70;1.80;;;;;;;;;;5145568;27;20502;-72
2022/10/18 11:38:20;;;;;;;13.02;2.05;;;;;;;;;;5149686;27;20370;-72
2022/10/18 11:40:49;;;;;;;11.45;2.20;;;;;;;;;;5136437;27;20048;-71
2022/10/18 11:43:15;;;;;;;14.20;2.30;;;;;;;;;;5146526;27;20050;-70
2022/10/18 11:46:00;;;;;;;14.90;2.30;;;;;;;;;;5120030;27;20039;-71
2022/10/18 11:48:38;;;;;;;11.25;1.77;;;;;;;;;;5147253;27;20053;-71
2022/10/18 11:51:10;;;;;;;12.25;1.88;;;;;;;;;;5134973;27;20117;-71
2022/10/18 11:53:48;;;;;;;10.05;1.70;;;;;;;;;;5149084;27;20074;-71
2022/10/18 11:56:15;;;;;;;11.63;1.90;;;;;;;;;;5133002;27;20039;-70
2022/10/18 11:58:56;;;;;;;14.60;2.35;;;;;;;;;;5138552;27;20114;-72
2022/10/18 12:01:22;;;;;;;15.88;2.33;;;;;;;;;;5133499;27;20039;-71
2022/10/18 12:04:01;;;;;;;15.05;2.17;;;;;;;;;;5134261;27;20504;-71
2022/10/18 12:06:36;;;;;;;12.27;2.08;;;;;;;;;;5134293;27;20050;-70
2022/10/18 12:09:04;;;;;;;8.68;1.60;;;;;;;;;;5141820;27;20397;-71
2022/10/18 12:11:36;;;;;;;13.13;2.00;;;;;;;;;;5132753;27;20051;-71
2022/10/18 12:14:04;;;;;;;13.85;2.15;;;;;;;;;;5143626;27;20103;-71
2022/10/18 12:16:37;;;;;;;9.93;1.88;;;;;;;;;;5141659;27;20396;-72
2022/10/18 12:19:06;;;;;;;11.02;1.98;;;;;;;;;;5146516;27;20046;-70
2022/10/18 12:21:33;;;;;;;8.50;1.55;;;;;;;;;;5116870;27;20130;-70
2022/10/18 12:24:08;;;;;;;13.75;1.80;;;;;;;;;;5129667;27;20042;-70
2022/10/18 12:26:34;;;;;;;12.27;2.00;;;;;;;;;;5138854;27;20042;-70
2022/10/18 12:29:19;;;;;;;11.50;1.60;;;;;;;;;;5131713;27;20047;-70
2022/10/18 12:31:46;;;;;;;12.05;2.08;;;;;;;;;;5135056;27;20488;-71
2022/10/18 12:34:22;;;;;;;12.43;1.70;;;;;;;;;;5138943;27;20114;-71
2022/10/18 12:37:00;;;;;;;12.32;1.70;;;;;;;;;;5151917;27;20050;-71
2022/10/18 12:39:29;;;;;;;14.10;2.03;;;;;;;;;;5142943;27;20047;-70
2022/10/18 12:41:56;;;;;;;12.85;1.98;;;;;;;;;;5134236;27;20047;-70
2022/10/18 12:44:26;;;;;;;11.15;1.70;;;;;;;;;;5133163;27;20031;-70
2022/10/18 12:46:56;;;;;;;10.57;1.73;;;;;;;;;;5138282;27;20059;-70
2022/10/18 12:49:26;;;;;;;10.10;1.67;;;;;;;;;;5138751;27;20046;-70
2022/10/18 12:51:53;;;;;;;12.38;1.60;;;;;;;;;;5141481;27;20110;-70
2022/10/18 12:54:26;;;;;;;8.98;1.90;;;;;;;;;;5136638;27;20067;-70
2022/10/18 12:56:52;;;;;;;9.75;1.58;;;;;;;;;;5138483;27;20050;-69
2022/10/18 12:59:18;;;;;;;15.82;2.17;;;;;;;;;;5149922;27;20046;-70
2022/10/18 13:02:04;;;;;;;10.48;1.67;;;;;;;;;;5153824;27;20049;-70
2022/10/18 13:04:31;;;;;;;11.68;1.90;;;;;;;;;;5134559;27;20046;-71
2022/10/18 13:06:57;;;;;;;11.10;1.52;;;;;;;;;;5115680;28;20046;-70
2022/10/18 13:09:27;;;;;;;9.77;1.83;;;;;;;;;;5132177;27;20061;-70
2022/10/18 13:12:08;;;;;;;13.70;1.60;;;;;;;;;;5141344;27;20083;-70
2022/10/18 13:14:34;;;;;;;;;;;;;;;;;;5136308;27;20046;-70
2022/10/18 13:17:00;;;;;;;14.70;1.85;;;;;;;;;;5136527;27;19919;-70
2022/10/18 13:19:37;;;;;;;11.10;1.60;;;;;;;;;;5134311;27;20527;-70
2022/10/18 13:22:16;;;;;;;10.35;1.58;;;;;;;;;;5133277;27;20126;-70
2022/10/18 13:24:45;;;;;;;10.38;1.67;;;;;;;;;;5118662;28;20035;-70
2022/10/18 13:27:14;;;;;;;11.55;1.60;;;;;;;;;;5131665;27;20100;-70
2022/10/18 13:29:40;;;;;;;9.80;1.60;;;;;;;;;;5136413;27;20051;-70
2022/10/18 13:32:28;;;;;;;12.48;1.77;;;;;;;;;;5141099;27;20079;-70
2022/10/18 13:34:54;;;;;;;11.73;1.80;;;;;;;;;;5140789;27;20485;-70
2022/10/18 13:37:23;;;;;;;14.50;1.70;;;;;;;;;;5137327;27;20051;-70
2022/10/18 13:39:50;;;;;;;13.07;1.85;;;;;;;;;;5141306;27;20407;-70
2022/10/18 13:42:28;;;;;;;11.93;2.25;;;;;;;;;;5098630;27;20069;-69
2022/10/18 13:44:54;;;;;;;9.40;1.70;;;;;;;;;;5142182;27;20143;-69
2022/10/18 13:47:46;;;;;;;11.65;1.80;;;;;;;;;;5135831;27;20112;-69
2022/10/18 13:50:20;;;;;;;11.13;1.33;;;;;;;;;;5129660;27;20074;-70
2022/10/18 13:52:46;;;;;;;10.10;1.50;;;;;;;;;;5132498;28;20370;-70
2022/10/18 13:55:18;;;;;;;10.57;1.50;;;;;;;;;;5133130;27;20050;-70
2022/10/18 13:57:44;;;;;;;12.93;2.30;;;;;;;;;;5149760;27;20060;-69
2022/10/18 14:00:29;;;;;;;12.43;1.95;;;;;;;;;;5132171;27;20039;-70
2022/10/18 14:03:13;;;;;;;12.32;1.55;;;;;;;;;;5138304;27;20039;-69
2022/10/18 14:05:58;;;;;;;10.02;1.92;;;;;;;;;;5134897;27;20088;-69
2022/10/18 14:08:24;;;;;;;12.70;1.80;;;;;;;;;;5135949;27;20027;-69
2022/10/18 14:10:50;;;;;;;14.10;2.40;;;;;;;;;;5147012;27;20088;-69
2022/10/18 14:13:20;;;;;;;13.70;1.98;;;;;;;;;;5135961;27;20051;-69
2022/10/18 14:15:48;;;;;;;11.95;1.60;;;;;;;;;;5143076;27;20087;-71
2022/10/18 14:18:15;;;;;;;10.73;1.75;;;;;;;;;;5140203;27;20500;-71
2022/10/18 14:20:48;;;;;;;11.07;2.05;;;;;;;;;;5154497;27;20525;-70
2022/10/18 14:23:16;;;;;;;10.45;2.00;;;;;;;;;;5145454;27;20831;-76
2022/10/18 14:25:42;;;;;;;9.73;1.83;;;;;;;;;;5136295;27;20118;-75
2022/10/18 14:28:13;;;;;;;12.93;1.92;;;;;;;;;;5120653;27;20103;-72
2022/10/18 14:31:05;;;;;;;11.38;1.90;;;;;;;;;;5137118;27;20043;-73